sensor_id;sensor_type;location;lat;lon;timestamp;pressure;altitude;pressure_sealevel;temperature;humidity
48810;BME280;40070;47.322;18.784;2024-03-29T00:00:47;994.40;;;10.17;70.27
48810;BME280;40070;47.322;18.784;2024-03-29T00:02:49;994.44;;;10.33;69.35
48810;BME280;40070;47.322;18.784;2024-03-29T00:04:52;994.33;;;10.31;69.74
48810;BME280;40070;47.322;18.784;2024-03-29T00:06:54;994.51;;;10.08;69.33
48810;BME280;40070;47.322;18.784;2024-03-29T00:08:57;994.69;;;10.30;68.28
48810;BME280;40070;47.322;18.784;2024-03-29T00:10:59;994.66;;;10.20;70.59
48810;BME280;40070;47.322;18.784;2024-03-29T00:13:02;994.81;;;10.37;68.23
48810;BME280;40070;47.322;18.784;2024-03-29T00:15:05;994.84;;;10.39;69.93
48810;BME280;40070;47.322;18.784;2024-03-29T00:17:07;994.96;;;10.32;69.38
48810;BME280;40070;47.322;18.784;2024-03-29T00:19:10;994.95;;;10.11;69.02
48810;BME280;40070;47.322;18.784;2024-03-29T00:21:12;995.00;;;10.07;68.58
48810;BME280;40070;47.322;18.784;2024-03-29T00:23:15;995.01;;;10.19;68.93
48810;BME280;40070;47.322;18.784;2024-03-29T00:25:17;995.04;;;10.31;69.14
48810;BME280;40070;47.322;18.784;2024-03-29T00:27:20;994.91;;;10.51;69.48
48810;BME280;40070;47.322;18.784;2024-03-29T00:29:22;994.96;;;10.47;69.75
48810;BME280;40070;47.322;18.784;2024-03-29T00:31:25;994.98;;;10.44;67.50
48810;BME280;40070;47.322;18.784;2024-03-29T00:33:27;995.00;;;10.34;70.27
48810;BME280;40070;47.322;18.784;2024-03-29T00:35:29;995.04;;;10.37;71.12
48810;BME280;40070;47.322;18.784;2024-03-29T00:37:32;995.19;;;10.47;71.70
48810;BME280;40070;47.322;18.784;2024-03-29T00:39:34;995.17;;;10.47;70.89
48810;BME280;40070;47.322;18.784;2024-03-29T00:41:37;995.27;;;10.45;71.07
48810;BME280;40070;47.322;18.784;2024-03-29T00:43:39;995.36;;;10.36;69.41
48810;BME280;40070;47.322;18.784;2024-03-29T00:45:42;995.46;;;10.45;69.51
48810;BME280;40070;47.322;18.784;2024-03-29T00:47:44;995.44;;;10.34;68.79
48810;BME280;40070;47.322;18.784;2024-03-29T00:49:47;995.49;;;10.38;67.04
48810;BME280;40070;47.322;18.784;2024-03-29T00:51:49;995.47;;;10.33;67.24
48810;BME280;40070;47.322;18.784;2024-03-29T00:53:52;995.52;;;10.52;66.63
48810;BME280;40070;47.322;18.784;2024-03-29T00:55:54;995.57;;;10.62;67.71
48810;BME280;40070;47.322;18.784;2024-03-29T00:57:57;995.68;;;10.69;68.11
48810;BME280;40070;47.322;18.784;2024-03-29T00:59:59;995.59;;;10.62;69.26
48810;BME280;40070;47.322;18.784;2024-03-29T01:02:02;995.49;;;10.58;69.66
48810;BME280;40070;47.322;18.784;2024-03-29T01:04:04;995.60;;;10.35;70.65
48810;BME280;40070;47.322;18.784;2024-03-29T01:06:07;995.59;;;10.31;70.92
48810;BME280;40070;47.322;18.784;2024-03-29T01:08:09;995.72;;;10.28;69.54
48810;BME280;40070;47.322;18.784;2024-03-29T01:10:12;995.67;;;10.05;70.41
48810;BME280;40070;47.322;18.784;2024-03-29T01:12:14;995.78;;;10.07;70.16
48810;BME280;40070;47.322;18.784;2024-03-29T01:14:17;995.85;;;9.97;71.06
48810;BME280;40070;47.322;18.784;2024-03-29T01:16:19;995.86;;;9.95;71.19
48810;BME280;40070;47.322;18.784;2024-03-29T01:18:22;995.77;;;9.99;71.42
48810;BME280;40070;47.322;18.784;2024-03-29T01:20:24;995.78;;;9.81;70.54
48810;BME280;40070;47.322;18.784;2024-03-29T01:22:27;995.79;;;9.59;71.51
48810;BME280;40070;47.322;18.784;2024-03-29T01:24:29;995.85;;;9.54;71.62
48810;BME280;40070;47.322;18.784;2024-03-29T01:26:32;995.86;;;9.44;71.88
48810;BME280;40070;47.322;18.784;2024-03-29T01:28:34;995.87;;;9.37;72.81
48810;BME280;40070;47.322;18.784;2024-03-29T01:30:37;995.90;;;9.32;72.26
48810;BME280;40070;47.322;18.784;2024-03-29T01:32:39;995.98;;;9.32;71.39
48810;BME280;40070;47.322;18.784;2024-03-29T01:34:42;996.06;;;9.41;71.93
48810;BME280;40070;47.322;18.784;2024-03-29T01:36:44;996.10;;;9.35;72.21
48810;BME280;40070;47.322;18.784;2024-03-29T01:38:47;996.05;;;9.46;71.56
48810;BME280;40070;47.322;18.784;2024-03-29T01:40:49;996.06;;;9.33;71.04
48810;BME280;40070;47.322;18.784;2024-03-29T01:42:54;996.09;;;9.18;70.26
48810;BME280;40070;47.322;18.784;2024-03-29T01:44:57;996.13;;;9.12;70.77
48810;BME280;40070;47.322;18.784;2024-03-29T01:46:59;996.19;;;9.14;71.05
48810;BME280;40070;47.322;18.784;2024-03-29T01:49:02;996.25;;;9.12;70.34
48810;BME280;40070;47.322;18.784;2024-03-29T01:51:05;996.29;;;9.06;69.47
48810;BME280;40070;47.322;18.784;2024-03-29T01:53:08;996.34;;;9.08;70.88
48810;BME280;40070;47.322;18.784;2024-03-29T01:55:11;996.40;;;9.08;70.33
48810;BME280;40070;47.322;18.784;2024-03-29T01:57:13;996.43;;;9.15;70.00
48810;BME280;40070;47.322;18.784;2024-03-29T01:59:16;996.59;;;9.01;71.57
48810;BME280;40070;47.322;18.784;2024-03-29T02:01:19;996.59;;;8.97;70.56
48810;BME280;40070;47.322;18.784;2024-03-29T02:03:21;996.60;;;8.94;70.13
48810;BME280;40070;47.322;18.784;2024-03-29T02:05:24;996.62;;;8.92;70.67
48810;BME280;40070;47.322;18.784;2024-03-29T02:07:27;996.67;;;8.59;72.27
48810;BME280;40070;47.322;18.784;2024-03-29T02:09:30;996.69;;;8.71;72.15
48810;BME280;40070;47.322;18.784;2024-03-29T02:11:33;996.74;;;8.65;71.83
48810;BME280;40070;47.322;18.784;2024-03-29T02:13:36;996.74;;;8.62;71.62
48810;BME280;40070;47.322;18.784;2024-03-29T02:15:39;996.82;;;8.69;71.49
48810;BME280;40070;47.322;18.784;2024-03-29T02:17:41;996.83;;;8.50;71.30
48810;BME280;40070;47.322;18.784;2024-03-29T02:19:44;996.91;;;8.60;71.56
48810;BME280;40070;47.322;18.784;2024-03-29T02:21:47;996.99;;;8.64;70.75
48810;BME280;40070;47.322;18.784;2024-03-29T02:24:08;997.05;;;8.59;71.98
48810;BME280;40070;47.322;18.784;2024-03-29T02:26:11;997.08;;;8.77;71.30
48810;BME280;40070;47.322;18.784;2024-03-29T02:28:14;997.08;;;8.90;70.59
48810;BME280;40070;47.322;18.784;2024-03-29T02:30:16;997.11;;;8.73;70.99
48810;BME280;40070;47.322;18.784;2024-03-29T02:32:19;997.13;;;8.81;71.14
48810;BME280;40070;47.322;18.784;2024-03-29T02:34:21;997.17;;;8.66;72.05
48810;BME280;40070;47.322;18.784;2024-03-29T02:36:24;997.16;;;8.77;72.19
48810;BME280;40070;47.322;18.784;2024-03-29T02:38:26;997.15;;;8.80;71.91
48810;BME280;40070;47.322;18.784;2024-03-29T02:40:29;997.21;;;8.77;71.83
48810;BME280;40070;47.322;18.784;2024-03-29T02:42:32;997.25;;;8.60;71.42
48810;BME280;40070;47.322;18.784;2024-03-29T02:44:34;997.25;;;8.56;71.39
48810;BME280;40070;47.322;18.784;2024-03-29T02:46:37;997.28;;;8.44;71.34
48810;BME280;40070;47.322;18.784;2024-03-29T02:48:39;997.25;;;8.36;71.77
48810;BME280;40070;47.322;18.784;2024-03-29T02:50:42;997.25;;;8.58;70.81
48810;BME280;40070;47.322;18.784;2024-03-29T02:52:44;997.26;;;8.57;70.93
48810;BME280;40070;47.322;18.784;2024-03-29T02:54:47;997.27;;;8.49;70.24
48810;BME280;40070;47.322;18.784;2024-03-29T02:56:49;997.27;;;8.14;71.40
48810;BME280;40070;47.322;18.784;2024-03-29T02:58:52;997.26;;;8.18;71.37
48810;BME280;40070;47.322;18.784;2024-03-29T03:00:55;997.28;;;8.29;69.98
48810;BME280;40070;47.322;18.784;2024-03-29T03:02:57;997.31;;;8.16;71.44
48810;BME280;40070;47.322;18.784;2024-03-29T03:05:00;997.33;;;8.21;71.90
48810;BME280;40070;47.322;18.784;2024-03-29T03:07:02;997.41;;;8.26;71.12
48810;BME280;40070;47.322;18.784;2024-03-29T03:09:05;997.47;;;8.12;70.92
48810;BME280;40070;47.322;18.784;2024-03-29T03:11:07;997.66;;;7.90;72.56
48810;BME280;40070;47.322;18.784;2024-03-29T03:13:09;997.68;;;7.90;72.54
48810;BME280;40070;47.322;18.784;2024-03-29T03:15:12;997.70;;;7.92;72.74
48810;BME280;40070;47.322;18.784;2024-03-29T03:17:14;997.82;;;7.95;73.09
48810;BME280;40070;47.322;18.784;2024-03-29T03:19:17;997.90;;;7.95;72.74
48810;BME280;40070;47.322;18.784;2024-03-29T03:21:19;998.01;;;7.70;74.29
48810;BME280;40070;47.322;18.784;2024-03-29T03:23:22;998.09;;;7.68;74.55
48810;BME280;40070;47.322;18.784;2024-03-29T03:25:25;998.15;;;7.70;74.30
48810;BME280;40070;47.322;18.784;2024-03-29T03:27:27;998.21;;;7.79;73.69
48810;BME280;40070;47.322;18.784;2024-03-29T03:29:30;998.21;;;7.78;72.99
48810;BME280;40070;47.322;18.784;2024-03-29T03:31:32;998.16;;;7.84;73.13
48810;BME280;40070;47.322;18.784;2024-03-29T03:33:35;998.23;;;7.81;72.47
48810;BME280;40070;47.322;18.784;2024-03-29T03:35:37;998.20;;;7.86;72.88
48810;BME280;40070;47.322;18.784;2024-03-29T03:37:39;998.13;;;8.04;72.17
48810;BME280;40070;47.322;18.784;2024-03-29T03:39:42;998.15;;;8.23;71.66
48810;BME280;40070;47.322;18.784;2024-03-29T03:41:44;998.16;;;8.21;71.43
48810;BME280;40070;47.322;18.784;2024-03-29T03:43:47;998.21;;;8.32;71.12
48810;BME280;40070;47.322;18.784;2024-03-29T03:45:49;998.14;;;8.25;71.50
48810;BME280;40070;47.322;18.784;2024-03-29T03:47:52;998.14;;;8.27;71.67
48810;BME280;40070;47.322;18.784;2024-03-29T03:49:54;998.13;;;8.33;71.35
48810;BME280;40070;47.322;18.784;2024-03-29T03:51:57;998.12;;;8.14;72.21
48810;BME280;40070;47.322;18.784;2024-03-29T03:53:59;998.14;;;7.72;72.90
48810;BME280;40070;47.322;18.784;2024-03-29T03:56:02;998.13;;;7.43;73.34
48810;BME280;40070;47.322;18.784;2024-03-29T03:58:04;998.15;;;7.60;72.89
48810;BME280;40070;47.322;18.784;2024-03-29T04:00:07;998.22;;;7.67;72.92
48810;BME280;40070;47.322;18.784;2024-03-29T04:02:10;998.22;;;7.64;72.03
48810;BME280;40070;47.322;18.784;2024-03-29T04:04:12;998.26;;;7.62;72.46
48810;BME280;40070;47.322;18.784;2024-03-29T04:06:15;998.24;;;7.45;72.80
48810;BME280;40070;47.322;18.784;2024-03-29T04:08:17;998.29;;;7.48;72.84
48810;BME280;40070;47.322;18.784;2024-03-29T04:10:20;998.27;;;7.49;72.71
48810;BME280;40070;47.322;18.784;2024-03-29T04:12:22;998.30;;;7.39;73.58
48810;BME280;40070;47.322;18.784;2024-03-29T04:14:25;998.38;;;7.70;72.84
48810;BME280;40070;47.322;18.784;2024-03-29T04:16:27;998.38;;;7.80;72.68
48810;BME280;40070;47.322;18.784;2024-03-29T04:18:30;998.37;;;7.65;73.60
48810;BME280;40070;47.322;18.784;2024-03-29T04:20:32;998.40;;;7.60;73.21
48810;BME280;40070;47.322;18.784;2024-03-29T04:22:34;998.44;;;7.54;72.78
48810;BME280;40070;47.322;18.784;2024-03-29T04:24:37;998.53;;;7.54;71.80
48810;BME280;40070;47.322;18.784;2024-03-29T04:26:39;998.59;;;7.35;72.90
48810;BME280;40070;47.322;18.784;2024-03-29T04:28:42;998.62;;;7.30;71.96
48810;BME280;40070;47.322;18.784;2024-03-29T04:30:54;998.62;;;7.24;72.26
48810;BME280;40070;47.322;18.784;2024-03-29T04:32:57;998.72;;;7.32;72.79
48810;BME280;40070;47.322;18.784;2024-03-29T04:35:00;998.79;;;7.37;72.81
48810;BME280;40070;47.322;18.784;2024-03-29T04:37:02;998.82;;;7.37;73.22
48810;BME280;40070;47.322;18.784;2024-03-29T04:39:05;998.86;;;7.36;73.57
48810;BME280;40070;47.322;18.784;2024-03-29T04:41:07;998.77;;;7.37;73.51
48810;BME280;40070;47.322;18.784;2024-03-29T04:43:10;998.74;;;7.29;74.13
48810;BME280;40070;47.322;18.784;2024-03-29T04:45:12;998.79;;;7.35;74.33
48810;BME280;40070;47.322;18.784;2024-03-29T04:47:15;998.80;;;7.54;73.98
48810;BME280;40070;47.322;18.784;2024-03-29T04:49:22;998.85;;;7.59;73.67
48810;BME280;40070;47.322;18.784;2024-03-29T04:51:25;998.80;;;7.67;73.47
48810;BME280;40070;47.322;18.784;2024-03-29T04:53:27;998.81;;;7.81;73.27
48810;BME280;40070;47.322;18.784;2024-03-29T04:55:30;998.92;;;7.79;73.72
48810;BME280;40070;47.322;18.784;2024-03-29T04:57:32;999.01;;;7.74;73.65
48810;BME280;40070;47.322;18.784;2024-03-29T04:59:35;999.05;;;7.69;73.97
48810;BME280;40070;47.322;18.784;2024-03-29T05:01:37;999.08;;;7.78;74.22
48810;BME280;40070;47.322;18.784;2024-03-29T05:03:40;999.15;;;7.81;73.66
48810;BME280;40070;47.322;18.784;2024-03-29T05:05:42;999.17;;;7.91;72.82
48810;BME280;40070;47.322;18.784;2024-03-29T05:07:45;999.23;;;7.96;72.95
48810;BME280;40070;47.322;18.784;2024-03-29T05:09:47;999.28;;;7.90;73.59
48810;BME280;40070;47.322;18.784;2024-03-29T05:11:49;999.25;;;7.93;73.41
48810;BME280;40070;47.322;18.784;2024-03-29T05:13:52;999.23;;;7.68;74.47
48810;BME280;40070;47.322;18.784;2024-03-29T05:15:54;999.31;;;7.82;75.15
48810;BME280;40070;47.322;18.784;2024-03-29T05:17:57;999.31;;;7.87;75.30
48810;BME280;40070;47.322;18.784;2024-03-29T05:19:59;999.34;;;8.07;74.72
48810;BME280;40070;47.322;18.784;2024-03-29T05:22:02;999.34;;;8.01;74.35
48810;BME280;40070;47.322;18.784;2024-03-29T05:24:05;999.35;;;8.06;74.06
48810;BME280;40070;47.322;18.784;2024-03-29T05:26:07;999.34;;;8.10;74.32
48810;BME280;40070;47.322;18.784;2024-03-29T05:28:10;999.31;;;8.06;74.24
48810;BME280;40070;47.322;18.784;2024-03-29T05:30:12;999.31;;;7.91;74.87
48810;BME280;40070;47.322;18.784;2024-03-29T05:32:15;999.26;;;8.10;74.21
48810;BME280;40070;47.322;18.784;2024-03-29T05:34:17;999.30;;;8.28;74.02
48810;BME280;40070;47.322;18.784;2024-03-29T05:36:20;999.39;;;8.42;74.13
48810;BME280;40070;47.322;18.784;2024-03-29T05:38:22;999.36;;;8.35;74.13
48810;BME280;40070;47.322;18.784;2024-03-29T05:40:25;999.33;;;8.14;75.02
48810;BME280;40070;47.322;18.784;2024-03-29T05:42:27;999.41;;;8.27;75.25
48810;BME280;40070;47.322;18.784;2024-03-29T05:44:30;999.46;;;8.35;75.51
48810;BME280;40070;47.322;18.784;2024-03-29T05:46:32;999.56;;;8.40;75.70
48810;BME280;40070;47.322;18.784;2024-03-29T05:48:35;999.62;;;8.30;76.14
48810;BME280;40070;47.322;18.784;2024-03-29T05:50:37;999.64;;;8.41;75.97
48810;BME280;40070;47.322;18.784;2024-03-29T05:52:40;999.66;;;8.28;76.24
48810;BME280;40070;47.322;18.784;2024-03-29T05:54:42;999.69;;;8.67;75.61
48810;BME280;40070;47.322;18.784;2024-03-29T05:56:45;999.74;;;8.91;75.12
48810;BME280;40070;47.322;18.784;2024-03-29T05:58:47;999.81;;;8.98;74.78
48810;BME280;40070;47.322;18.784;2024-03-29T06:00:50;999.84;;;9.05;74.78
48810;BME280;40070;47.322;18.784;2024-03-29T06:02:52;999.87;;;9.14;74.43
48810;BME280;40070;47.322;18.784;2024-03-29T06:04:55;999.88;;;9.05;75.25
48810;BME280;40070;47.322;18.784;2024-03-29T06:07:01;999.80;;;8.96;75.76
48810;BME280;40070;47.322;18.784;2024-03-29T06:09:03;999.67;;;9.36;74.61
48810;BME280;40070;47.322;18.784;2024-03-29T06:11:06;999.67;;;9.41;74.73
48810;BME280;40070;47.322;18.784;2024-03-29T06:13:08;999.74;;;9.50;74.25
48810;BME280;40070;47.322;18.784;2024-03-29T06:15:11;999.76;;;9.64;74.10
48810;BME280;40070;47.322;18.784;2024-03-29T06:17:13;999.80;;;9.55;73.36
48810;BME280;40070;47.322;18.784;2024-03-29T06:19:16;999.77;;;9.79;72.99
48810;BME280;40070;47.322;18.784;2024-03-29T06:21:18;999.82;;;9.93;72.49
48810;BME280;40070;47.322;18.784;2024-03-29T06:23:21;999.82;;;10.19;72.02
48810;BME280;40070;47.322;18.784;2024-03-29T06:25:23;999.84;;;10.09;72.01
48810;BME280;40070;47.322;18.784;2024-03-29T06:27:25;999.78;;;10.09;71.17
48810;BME280;40070;47.322;18.784;2024-03-29T06:29:28;999.80;;;10.21;71.29
48810;BME280;40070;47.322;18.784;2024-03-29T06:31:30;999.79;;;10.34;71.15
48810;BME280;40070;47.322;18.784;2024-03-29T06:33:33;999.79;;;10.10;71.41
48810;BME280;40070;47.322;18.784;2024-03-29T06:35:35;999.88;;;10.25;71.98
48810;BME280;40070;47.322;18.784;2024-03-29T06:37:38;999.96;;;10.42;71.43
48810;BME280;40070;47.322;18.784;2024-03-29T06:39:41;1000.00;;;10.35;72.18
48810;BME280;40070;47.322;18.784;2024-03-29T06:41:43;1000.04;;;10.24;72.96
48810;BME280;40070;47.322;18.784;2024-03-29T06:43:46;1000.02;;;10.44;71.63
48810;BME280;40070;47.322;18.784;2024-03-29T06:45:48;1000.02;;;10.33;72.45
48810;BME280;40070;47.322;18.784;2024-03-29T06:47:51;1000.03;;;10.19;72.68
48810;BME280;40070;47.322;18.784;2024-03-29T06:49:53;999.95;;;10.35;72.54
48810;BME280;40070;47.322;18.784;2024-03-29T06:51:56;999.92;;;10.60;71.51
48810;BME280;40070;47.322;18.784;2024-03-29T06:53:58;999.90;;;10.73;69.66
48810;BME280;40070;47.322;18.784;2024-03-29T06:56:01;999.97;;;10.94;70.16
48810;BME280;40070;47.322;18.784;2024-03-29T06:58:03;999.96;;;11.09;69.67
48810;BME280;40070;47.322;18.784;2024-03-29T07:00:06;999.95;;;11.22;69.43
48810;BME280;40070;47.322;18.784;2024-03-29T07:02:09;999.96;;;11.35;69.40
48810;BME280;40070;47.322;18.784;2024-03-29T07:04:11;999.96;;;11.28;67.63
48810;BME280;40070;47.322;18.784;2024-03-29T07:06:14;999.98;;;11.36;67.99
48810;BME280;40070;47.322;18.784;2024-03-29T07:08:16;1000.04;;;11.08;68.76
48810;BME280;40070;47.322;18.784;2024-03-29T07:10:19;1000.05;;;11.49;68.63
48810;BME280;40070;47.322;18.784;2024-03-29T07:12:21;1000.07;;;11.62;68.20
48810;BME280;40070;47.322;18.784;2024-03-29T07:14:24;1000.13;;;11.85;67.21
48810;BME280;40070;47.322;18.784;2024-03-29T07:16:26;1000.14;;;11.96;68.10
48810;BME280;40070;47.322;18.784;2024-03-29T07:18:29;1000.17;;;11.96;66.91
48810;BME280;40070;47.322;18.784;2024-03-29T07:20:31;1000.19;;;12.12;66.59
48810;BME280;40070;47.322;18.784;2024-03-29T07:22:34;1000.23;;;11.84;66.98
48810;BME280;40070;47.322;18.784;2024-03-29T07:24:36;1000.23;;;11.87;66.78
48810;BME280;40070;47.322;18.784;2024-03-29T07:26:39;1000.31;;;11.70;67.13
48810;BME280;40070;47.322;18.784;2024-03-29T07:28:42;1000.30;;;11.90;67.03
48810;BME280;40070;47.322;18.784;2024-03-29T07:30:44;1000.29;;;12.16;66.36
48810;BME280;40070;47.322;18.784;2024-03-29T07:32:47;1000.22;;;12.28;65.61
48810;BME280;40070;47.322;18.784;2024-03-29T07:34:49;1000.25;;;12.15;65.28
48810;BME280;40070;47.322;18.784;2024-03-29T07:36:52;1000.19;;;12.22;65.13
48810;BME280;40070;47.322;18.784;2024-03-29T07:38:54;1000.13;;;12.32;66.18
48810;BME280;40070;47.322;18.784;2024-03-29T07:40:56;1000.14;;;12.58;64.70
48810;BME280;40070;47.322;18.784;2024-03-29T07:42:59;1000.19;;;12.62;63.37
48810;BME280;40070;47.322;18.784;2024-03-29T07:45:01;1000.04;;;12.78;62.62
48810;BME280;40070;47.322;18.784;2024-03-29T07:47:04;1000.02;;;12.71;63.15
48810;BME280;40070;47.322;18.784;2024-03-29T07:49:06;1000.10;;;12.76;63.58
48810;BME280;40070;47.322;18.784;2024-03-29T07:51:09;1000.12;;;12.84;62.37
48810;BME280;40070;47.322;18.784;2024-03-29T07:53:11;1000.17;;;12.94;63.69
48810;BME280;40070;47.322;18.784;2024-03-29T07:55:14;1000.14;;;12.85;61.29
48810;BME280;40070;47.322;18.784;2024-03-29T07:57:16;1000.12;;;12.89;60.55
48810;BME280;40070;47.322;18.784;2024-03-29T07:59:19;1000.14;;;13.00;62.46
48810;BME280;40070;47.322;18.784;2024-03-29T08:01:22;1000.18;;;13.05;61.32
48810;BME280;40070;47.322;18.784;2024-03-29T08:03:24;1000.19;;;13.19;63.16
48810;BME280;40070;47.322;18.784;2024-03-29T08:05:27;1000.22;;;13.09;61.78
48810;BME280;40070;47.322;18.784;2024-03-29T08:07:32;1000.15;;;13.31;61.68
48810;BME280;40070;47.322;18.784;2024-03-29T08:09:35;1000.27;;;13.64;61.70
48810;BME280;40070;47.322;18.784;2024-03-29T08:11:37;1000.25;;;13.71;59.58
48810;BME280;40070;47.322;18.784;2024-03-29T08:13:40;1000.17;;;13.73;58.88
48810;BME280;40070;47.322;18.784;2024-03-29T08:15:43;1000.21;;;13.77;59.07
48810;BME280;40070;47.322;18.784;2024-03-29T08:17:45;1000.16;;;13.91;57.74
48810;BME280;40070;47.322;18.784;2024-03-29T08:19:48;1000.13;;;13.98;57.71
48810;BME280;40070;47.322;18.784;2024-03-29T08:21:50;1000.19;;;14.19;58.37
48810;BME280;40070;47.322;18.784;2024-03-29T08:23:53;1000.16;;;14.48;58.62
48810;BME280;40070;47.322;18.784;2024-03-29T08:25:55;1000.12;;;14.65;57.12
48810;BME280;40070;47.322;18.784;2024-03-29T08:27:58;1000.06;;;14.63;54.86
48810;BME280;40070;47.322;18.784;2024-03-29T08:30:00;1000.02;;;14.84;54.63
48810;BME280;40070;47.322;18.784;2024-03-29T08:32:03;1000.08;;;14.94;54.09
48810;BME280;40070;47.322;18.784;2024-03-29T08:34:05;1000.01;;;15.02;53.89
48810;BME280;40070;47.322;18.784;2024-03-29T08:36:08;1000.04;;;15.12;54.24
48810;BME280;40070;47.322;18.784;2024-03-29T08:38:10;999.98;;;15.49;54.16
48810;BME280;40070;47.322;18.784;2024-03-29T08:40:13;1000.08;;;15.26;52.59
48810;BME280;40070;47.322;18.784;2024-03-29T08:42:16;1000.12;;;15.19;53.14
48810;BME280;40070;47.322;18.784;2024-03-29T08:44:18;1000.08;;;15.32;52.21
48810;BME280;40070;47.322;18.784;2024-03-29T08:46:21;1000.09;;;15.22;51.56
48810;BME280;40070;47.322;18.784;2024-03-29T08:48:23;1000.06;;;15.10;51.81
48810;BME280;40070;47.322;18.784;2024-03-29T08:50:26;1000.00;;;15.10;51.69
48810;BME280;40070;47.322;18.784;2024-03-29T08:52:28;999.94;;;15.15;52.46
48810;BME280;40070;47.322;18.784;2024-03-29T08:54:31;999.92;;;15.43;52.02
48810;BME280;40070;47.322;18.784;2024-03-29T08:56:33;999.83;;;15.29;50.38
48810;BME280;40070;47.322;18.784;2024-03-29T08:58:36;999.79;;;15.21;50.68
48810;BME280;40070;47.322;18.784;2024-03-29T09:00:38;999.72;;;15.32;50.68
48810;BME280;40070;47.322;18.784;2024-03-29T09:02:41;999.72;;;15.36;52.17
48810;BME280;40070;47.322;18.784;2024-03-29T09:04:43;999.71;;;15.37;50.43
48810;BME280;40070;47.322;18.784;2024-03-29T09:06:46;999.70;;;15.61;50.82
48810;BME280;40070;47.322;18.784;2024-03-29T09:08:48;999.73;;;15.82;48.69
48810;BME280;40070;47.322;18.784;2024-03-29T09:10:51;999.77;;;15.91;48.28
48810;BME280;40070;47.322;18.784;2024-03-29T09:12:53;999.83;;;15.61;47.27
48810;BME280;40070;47.322;18.784;2024-03-29T09:14:55;999.77;;;15.74;48.00
48810;BME280;40070;47.322;18.784;2024-03-29T09:16:58;999.76;;;15.92;47.07
48810;BME280;40070;47.322;18.784;2024-03-29T09:19:00;999.86;;;16.20;47.42
48810;BME280;40070;47.322;18.784;2024-03-29T09:21:03;999.81;;;16.29;47.44
48810;BME280;40070;47.322;18.784;2024-03-29T09:23:05;999.79;;;16.44;47.47
48810;BME280;40070;47.322;18.784;2024-03-29T09:25:08;999.77;;;16.32;47.15
48810;BME280;40070;47.322;18.784;2024-03-29T09:27:11;999.57;;;16.23;47.92
48810;BME280;40070;47.322;18.784;2024-03-29T09:29:13;999.69;;;16.18;47.65
48810;BME280;40070;47.322;18.784;2024-03-29T09:31:16;999.58;;;16.15;47.70
48810;BME280;40070;47.322;18.784;2024-03-29T09:33:18;999.61;;;16.34;47.43
48810;BME280;40070;47.322;18.784;2024-03-29T09:35:20;999.63;;;16.39;48.32
48810;BME280;40070;47.322;18.784;2024-03-29T09:37:23;999.68;;;16.58;48.78
48810;BME280;40070;47.322;18.784;2024-03-29T09:39:25;999.68;;;16.95;48.51
48810;BME280;40070;47.322;18.784;2024-03-29T09:41:28;999.61;;;16.80;47.88
48810;BME280;40070;47.322;18.784;2024-03-29T09:43:31;999.60;;;16.45;49.03
48810;BME280;40070;47.322;18.784;2024-03-29T09:45:34;999.61;;;16.48;49.27
48810;BME280;40070;47.322;18.784;2024-03-29T09:47:36;999.73;;;16.77;49.23
48810;BME280;40070;47.322;18.784;2024-03-29T09:49:39;999.64;;;16.84;49.62
48810;BME280;40070;47.322;18.784;2024-03-29T09:51:43;999.68;;;16.68;49.71
48810;BME280;40070;47.322;18.784;2024-03-29T09:53:46;999.68;;;16.75;49.98
48810;BME280;40070;47.322;18.784;2024-03-29T09:55:49;999.69;;;16.60;50.33
48810;BME280;40070;47.322;18.784;2024-03-29T09:57:53;999.70;;;16.39;51.24
48810;BME280;40070;47.322;18.784;2024-03-29T09:59:58;999.61;;;16.41;51.53
48810;BME280;40070;47.322;18.784;2024-03-29T10:02:01;999.55;;;16.28;52.46
48810;BME280;40070;47.322;18.784;2024-03-29T10:04:04;999.55;;;16.29;52.50
48810;BME280;40070;47.322;18.784;2024-03-29T10:06:08;999.58;;;16.37;52.94
48810;BME280;40070;47.322;18.784;2024-03-29T10:08:11;999.62;;;16.48;52.80
48810;BME280;40070;47.322;18.784;2024-03-29T10:10:14;999.51;;;16.50;52.24
48810;BME280;40070;47.322;18.784;2024-03-29T10:12:17;999.50;;;16.54;52.56
48810;BME280;40070;47.322;18.784;2024-03-29T10:14:19;999.53;;;16.70;52.22
48810;BME280;40070;47.322;18.784;2024-03-29T10:16:22;999.48;;;17.19;51.75
48810;BME280;40070;47.322;18.784;2024-03-29T10:18:24;999.39;;;17.23;50.96
48810;BME280;40070;47.322;18.784;2024-03-29T10:20:27;999.33;;;17.35;51.56
48810;BME280;40070;47.322;18.784;2024-03-29T10:22:30;999.39;;;17.37;51.18
48810;BME280;40070;47.322;18.784;2024-03-29T10:24:38;999.36;;;17.25;51.52
48810;BME280;40070;47.322;18.784;2024-03-29T10:26:43;999.36;;;17.38;52.35
48810;BME280;40070;47.322;18.784;2024-03-29T10:28:46;999.44;;;17.28;51.30
48810;BME280;40070;47.322;18.784;2024-03-29T10:30:49;999.34;;;17.46;51.47
48810;BME280;40070;47.322;18.784;2024-03-29T10:32:51;999.32;;;17.73;51.21
48810;BME280;40070;47.322;18.784;2024-03-29T10:34:54;999.26;;;17.76;50.13
48810;BME280;40070;47.322;18.784;2024-03-29T10:36:56;999.21;;;17.56;50.65
48810;BME280;40070;47.322;18.784;2024-03-29T10:38:59;999.16;;;17.34;51.49
48810;BME280;40070;47.322;18.784;2024-03-29T10:41:01;999.17;;;17.44;51.41
48810;BME280;40070;47.322;18.784;2024-03-29T10:43:05;999.14;;;17.69;51.56
48810;BME280;40070;47.322;18.784;2024-03-29T10:45:08;999.07;;;18.28;51.44
48810;BME280;40070;47.322;18.784;2024-03-29T10:47:10;999.03;;;18.37;50.29
48810;BME280;40070;47.322;18.784;2024-03-29T10:49:15;998.96;;;18.62;49.61
48810;BME280;40070;47.322;18.784;2024-03-29T10:51:19;998.83;;;18.86;49.24
48810;BME280;40070;47.322;18.784;2024-03-29T10:53:27;998.73;;;19.05;48.53
48810;BME280;40070;47.322;18.784;2024-03-29T10:55:34;998.71;;;19.12;50.12
48810;BME280;40070;47.322;18.784;2024-03-29T10:57:40;998.66;;;19.12;48.45
48810;BME280;40070;47.322;18.784;2024-03-29T10:59:54;998.54;;;19.18;48.72
48810;BME280;40070;47.322;18.784;2024-03-29T11:02:00;998.56;;;19.14;48.87